Long Sault, Canada
Current Conditions -  °F | °C
As of 12:53 PM on Thursday 30 Oct 2014 (Local Time) from KMSS Reporting Station
Overcast Overcast  
Wind Chill: 42°   Ceiling: 3700
Heat Index: 45°   Visibility: 10mi
Dew Point: 33°   Wind: 6mph
Humidity: 63%   Direction: 270°W
Pressure: 30.01"   Gusts: NA
Location:  45.03°N, 74.9°W
Report Text: KMSS 301653Z AUTO 27005KT 10SM OVC037 07/01 A3001 RMK AO2 SLP167 T00720006
Loading
Personal Weather Stations






























Interactive Weather Map
Tropical Storm Tracking
New forecast layout! Learn more

10-Day Weather Forecast

Advertisements
Track Severe Weather on mobile